createdAt,value
2023-03-21T00:00:32.687Z,4.60
2023-03-21T00:03:18.882Z,6.05
2023-03-21T00:05:49.970Z,4.65
2023-03-21T00:08:18.120Z,5.38
2023-03-21T00:10:45.185Z,5.90
2023-03-21T00:13:13.571Z,6.47
2023-03-21T00:16:05.131Z,4.50
2023-03-21T00:18:42.212Z,6.18
2023-03-21T00:21:39.600Z,5.53
2023-03-21T00:24:02.816Z,5.63
2023-03-21T00:26:29.771Z,5.82
2023-03-21T00:28:57.221Z,5.22
2023-03-21T00:31:24.170Z,5.50
2023-03-21T00:33:51.574Z,5.65
2023-03-21T00:36:19.005Z,5.43
2023-03-21T00:38:46.265Z,6.43
2023-03-21T00:41:26.366Z,5.70
2023-03-21T00:44:04.232Z,9.07
2023-03-21T00:46:43.717Z,7.18
2023-03-21T00:49:13.022Z,7.05
2023-03-21T00:51:40.094Z,6.05
2023-03-21T00:54:07.894Z,8.40
2023-03-21T00:56:34.919Z,6.80
2023-03-21T00:59:02.180Z,9.27
2023-03-21T01:01:32.116Z,8.10
2023-03-21T01:04:05.653Z,7.28
2023-03-21T01:06:40.744Z,7.03
2023-03-21T01:09:20.802Z,6.75
2023-03-21T01:11:49.416Z,6.30
2023-03-21T01:14:22.833Z,6.78
2023-03-21T01:16:54.177Z,8.38
2023-03-21T01:19:44.245Z,6.40
2023-03-21T01:22:15.709Z,7.30
2023-03-21T01:24:52.408Z,7.65
2023-03-21T01:27:21.017Z,7.38
2023-03-21T01:29:48.199Z,7.25
2023-03-21T01:32:15.190Z,7.00
2023-03-21T01:34:42.484Z,6.85
2023-03-21T01:37:09.392Z,7.45
2023-03-21T01:39:36.761Z,7.72
2023-03-21T01:42:03.923Z,7.57
2023-03-21T01:44:31.740Z,9.10
2023-03-21T01:47:10.367Z,7.65
2023-03-21T01:49:46.374Z,7.93
2023-03-21T01:52:33.392Z,7.78
2023-03-21T01:55:07.160Z,7.00
2023-03-21T01:58:02.056Z,9.25
2023-03-21T02:00:33.511Z,10.27
2023-03-21T02:03:12.781Z,9.98
2023-03-21T02:06:03.598Z,8.50
2023-03-21T02:08:39.716Z,9.70
2023-03-21T02:11:10.180Z,9.63
2023-03-21T02:13:38.205Z,9.60
2023-03-21T02:16:15.617Z,10.82
2023-03-21T02:19:04.314Z,8.85
2023-03-21T02:21:46.588Z,10.00
2023-03-21T02:24:59.565Z,9.75
2023-03-21T02:27:41.024Z,8.50
2023-03-21T02:31:08.940Z,10.38
2023-03-21T02:34:13.918Z,11.43
2023-03-21T02:37:01.274Z,8.30
2023-03-21T02:39:55.044Z,9.63
2023-03-21T02:43:01.049Z,9.27
2023-03-21T02:45:50.820Z,8.60
2023-03-21T02:48:44.747Z,8.18
2023-03-21T02:51:24.224Z,8.27
2023-03-21T02:54:24.954Z,8.88
2023-03-21T02:56:53.224Z,10.32
2023-03-21T02:59:23.821Z,9.55
2023-03-21T03:01:52.931Z,11.90
2023-03-21T03:04:28.538Z,9.07
2023-03-21T03:06:58.716Z,9.63
2023-03-21T03:09:48.126Z,8.88
2023-03-21T03:12:39.798Z,11.38
2023-03-21T03:15:22.154Z,9.38
2023-03-21T03:18:34.804Z,11.85
2023-03-21T03:21:32.738Z,9.18
2023-03-21T03:24:03.682Z,10.27
2023-03-21T03:26:41.269Z,8.65
2023-03-21T03:29:14.954Z,8.20
2023-03-21T03:31:54.732Z,9.77
2023-03-21T03:34:29.612Z,10.45
2023-03-21T03:37:04.571Z,9.57
2023-03-21T03:39:46.269Z,8.68
2023-03-21T03:42:28.541Z,8.00
2023-03-21T03:44:57.613Z,9.30
2023-03-21T03:47:58.070Z,11.10
2023-03-21T03:50:36.406Z,9.27
2023-03-21T03:53:37.059Z,11.35
2023-03-21T03:56:08.301Z,10.38
2023-03-21T03:58:45.193Z,10.30
2023-03-21T04:01:14.132Z,10.55
2023-03-21T04:03:52.984Z,11.48
2023-03-21T04:06:29.061Z,9.37
2023-03-21T04:08:57.226Z,13.88
2023-03-21T04:11:24.640Z,8.25
2023-03-21T04:13:52.082Z,8.93
2023-03-21T04:16:19.416Z,12.23
2023-03-21T04:18:47.784Z,9.50
2023-03-21T04:21:15.597Z,10.73
2023-03-21T04:23:42.531Z,11.32
2023-03-21T04:26:11.140Z,9.18
2023-03-21T04:28:39.807Z,9.95
2023-03-21T04:31:22.719Z,12.13
2023-03-21T04:33:52.326Z,11.93
2023-03-21T04:36:26.475Z,11.65
2023-03-21T04:38:54.329Z,11.15
2023-03-21T04:41:21.565Z,10.40
2023-03-21T04:43:48.534Z,11.13
2023-03-21T04:46:15.846Z,10.55
2023-03-21T04:48:42.756Z,10.55
2023-03-21T04:51:10.055Z,11.35
2023-03-21T04:53:38.536Z,13.57
2023-03-21T04:56:07.152Z,11.63
2023-03-21T04:58:34.406Z,13.95
2023-03-21T05:01:06.005Z,13.07
2023-03-21T05:03:34.605Z,9.52
2023-03-21T05:06:01.822Z,10.23
2023-03-21T05:08:29.214Z,10.65
2023-03-21T05:10:56.480Z,11.30
2023-03-21T05:13:23.658Z,12.60
2023-03-21T05:15:50.860Z,14.75
2023-03-21T05:18:24.860Z,11.02
2023-03-21T05:20:57.381Z,12.45
2023-03-21T05:23:24.916Z,13.32
2023-03-21T05:25:52.111Z,10.65
2023-03-21T05:28:21.592Z,12.98
2023-03-21T05:30:48.961Z,11.30
2023-03-21T05:33:15.883Z,12.85
2023-03-21T05:35:43.772Z,15.48
2023-03-21T05:38:10.690Z,12.57
2023-03-21T05:40:37.996Z,13.82
2023-03-21T05:43:05.064Z,12.18
2023-03-21T05:45:32.348Z,12.40
2023-03-21T05:47:59.337Z,15.90
2023-03-21T05:50:26.614Z,12.77
2023-03-21T05:52:53.685Z,13.00
2023-03-21T05:55:21.148Z,15.75
2023-03-21T05:57:48.407Z,10.13
2023-03-21T06:00:16.621Z,13.25
2023-03-21T06:02:44.803Z,13.90
2023-03-21T06:05:12.223Z,11.48
2023-03-21T06:07:39.986Z,11.07
2023-03-21T06:10:07.836Z,12.43
2023-03-21T06:12:34.820Z,14.48
2023-03-21T06:15:02.475Z,12.25
2023-03-21T06:17:29.536Z,15.23
2023-03-21T06:19:57.411Z,13.68
2023-03-21T06:22:24.377Z,12.43
2023-03-21T06:24:51.549Z,11.57
2023-03-21T06:27:18.854Z,12.48
2023-03-21T06:29:46.404Z,14.88
2023-03-21T06:32:13.821Z,12.90
2023-03-21T06:34:41.091Z,14.20
2023-03-21T06:37:08.172Z,12.23
2023-03-21T06:39:36.323Z,10.85
2023-03-21T06:42:03.536Z,14.82
2023-03-21T06:44:31.066Z,11.82
2023-03-21T06:46:58.025Z,15.90
2023-03-21T06:49:26.067Z,11.77
2023-03-21T06:51:53.508Z,11.23
2023-03-21T06:54:21.152Z,13.65
2023-03-21T06:56:48.190Z,67.35
2023-03-21T06:59:15.938Z,21.77
2023-03-21T07:01:43.972Z,18.20
2023-03-21T07:04:11.336Z,16.60
2023-03-21T07:06:38.424Z,13.48
2023-03-21T07:09:06.923Z,12.85
2023-03-21T07:11:35.926Z,11.52
2023-03-21T07:14:04.089Z,11.02
2023-03-21T07:16:31.195Z,10.93
2023-03-21T07:18:58.478Z,9.65
2023-03-21T07:21:25.542Z,13.55
2023-03-21T07:23:52.798Z,12.27
2023-03-21T07:26:19.800Z,13.93
2023-03-21T07:28:47.023Z,9.23
2023-03-21T07:31:17.349Z,10.75
2023-03-21T07:33:44.576Z,8.68
2023-03-21T07:36:16.309Z,9.07
2023-03-21T07:38:46.013Z,10.95
2023-03-21T07:43:46.496Z,12.38
2023-03-21T07:46:13.610Z,10.70
2023-03-21T07:48:41.093Z,8.30
2023-03-21T07:51:08.243Z,8.05
2023-03-21T07:53:35.747Z,10.45
2023-03-21T07:56:02.734Z,9.10
2023-03-21T07:58:30.040Z,9.38
2023-03-21T08:00:58.811Z,11.18
2023-03-21T08:03:29.957Z,10.00
2023-03-21T08:06:03.377Z,10.55
2023-03-21T08:08:30.964Z,12.15
2023-03-21T08:10:58.326Z,13.07
2023-03-21T08:13:26.209Z,10.18
2023-03-21T08:15:53.467Z,10.75
2023-03-21T08:18:21.074Z,10.52
2023-03-21T08:20:56.435Z,12.85
2023-03-21T08:23:24.755Z,10.13
2023-03-21T08:25:54.183Z,10.50
2023-03-21T08:28:22.722Z,10.93
2023-03-21T08:30:51.100Z,12.52
2023-03-21T08:33:18.966Z,9.13
2023-03-21T08:35:46.889Z,7.72
2023-03-21T08:38:14.682Z,12.60
2023-03-21T08:40:41.753Z,12.98
2023-03-21T08:43:09.254Z,9.80
2023-03-21T08:45:36.397Z,7.65
2023-03-21T08:48:04.173Z,11.13
2023-03-21T08:50:31.909Z,7.32
2023-03-21T08:52:59.060Z,9.05
2023-03-21T08:55:26.115Z,12.85
2023-03-21T08:57:53.455Z,8.18
2023-03-21T09:00:22.269Z,9.98
2023-03-21T09:02:52.162Z,11.07
2023-03-21T09:05:19.984Z,11.48
2023-03-21T09:07:49.796Z,9.10
2023-03-21T09:10:21.835Z,7.25
2023-03-21T09:12:53.647Z,11.15
2023-03-21T09:15:28.667Z,8.32
2023-03-21T09:17:58.894Z,5.80
2023-03-21T09:20:31.366Z,6.82
2023-03-21T09:22:59.889Z,5.65
2023-03-21T09:25:31.263Z,6.07
2023-03-21T09:28:00.706Z,6.13
2023-03-21T09:30:28.712Z,5.25
2023-03-21T09:32:56.136Z,4.45
2023-03-21T09:35:24.346Z,5.13
2023-03-21T09:37:51.643Z,3.92
2023-03-21T09:40:40.161Z,4.40
2023-03-21T09:43:49.531Z,6.30
2023-03-21T09:46:45.382Z,3.08
2023-03-21T09:49:25.794Z,4.10
2023-03-21T09:51:56.635Z,5.20
2023-03-21T09:54:33.475Z,4.18
2023-03-21T09:57:14.959Z,5.90
2023-03-21T09:59:42.945Z,4.40
2023-03-21T10:02:49.575Z,4.38
2023-03-21T10:05:32.034Z,2.97
2023-03-21T10:08:19.518Z,3.05
2023-03-21T10:10:55.899Z,2.05
2023-03-21T10:13:31.874Z,2.60
2023-03-21T10:16:14.249Z,4.30
2023-03-21T10:18:43.534Z,3.28
2023-03-21T10:21:47.401Z,7.03
2023-03-21T10:24:14.108Z,3.85
2023-03-21T10:26:44.099Z,4.65
2023-03-21T10:29:16.793Z,2.38
2023-03-21T10:31:47.490Z,2.92
2023-03-21T10:34:36.412Z,3.80
2023-03-21T10:37:06.039Z,2.92
2023-03-21T10:39:39.186Z,2.17
2023-03-21T10:42:07.059Z,3.92
2023-03-21T10:44:36.434Z,3.15
2023-03-21T10:47:09.934Z,6.40
2023-03-21T10:50:13.053Z,3.58
2023-03-21T10:52:32.638Z,2.92
2023-03-21T10:55:33.366Z,3.88
2023-03-21T10:58:18.915Z,4.78
2023-03-21T11:03:31.308Z,2.67
2023-03-21T11:06:23.613Z,3.97
2023-03-21T11:08:56.551Z,3.00
2023-03-21T11:11:33.809Z,2.10
2023-03-21T11:14:24.043Z,4.20
2023-03-21T11:16:51.631Z,3.17
2023-03-21T11:19:29.731Z,2.85
2023-03-21T11:22:00.058Z,3.92
2023-03-21T11:24:31.175Z,2.60
2023-03-21T11:26:59.224Z,1.90
2023-03-21T11:29:38.993Z,2.70
2023-03-21T11:32:37.349Z,5.30
2023-03-21T11:35:32.331Z,4.47
2023-03-21T11:37:59.279Z,3.55
2023-03-21T11:40:32.339Z,3.22
2023-03-21T11:43:32.049Z,7.32
2023-03-21T11:46:07.394Z,5.85
2023-03-21T11:51:33.506Z,3.50
2023-03-21T11:54:42.136Z,3.03
2023-03-21T11:57:48.934Z,2.10
2023-03-21T12:00:29.810Z,1.75
2023-03-21T12:03:24.539Z,2.05
2023-03-21T12:05:58.474Z,4.05
2023-03-21T12:08:48.247Z,3.03
2023-03-21T12:11:55.470Z,1.73
2023-03-21T12:14:45.877Z,1.85
2023-03-21T12:17:46.512Z,3.70
2023-03-21T12:20:53.197Z,5.28
2023-03-21T12:23:23.405Z,5.88
2023-03-21T12:26:27.834Z,2.35
2023-03-21T12:29:16.967Z,2.50
2023-03-21T12:32:18.664Z,2.50
2023-03-21T12:35:22.292Z,4.30
2023-03-21T12:38:14.320Z,2.90
2023-03-21T12:41:13.727Z,2.30
2023-03-21T12:43:55.467Z,2.50
2023-03-21T12:46:40.902Z,2.72
2023-03-21T12:49:38.618Z,3.53
2023-03-21T12:52:14.578Z,2.45
2023-03-21T12:54:52.179Z,3.55
2023-03-21T12:57:57.602Z,2.47
2023-03-21T13:03:30.607Z,2.55
2023-03-21T13:06:07.412Z,5.22
2023-03-21T13:08:46.631Z,5.13
2023-03-21T13:11:20.314Z,2.15
2023-03-21T13:14:12.485Z,2.40
2023-03-21T13:16:45.105Z,2.50
2023-03-21T13:19:16.926Z,5.93
2023-03-21T13:22:06.455Z,2.80
2023-03-21T13:24:44.029Z,2.88
2023-03-21T13:27:34.294Z,2.78
2023-03-21T13:30:26.299Z,2.35
2023-03-21T13:33:14.179Z,2.67
2023-03-21T13:35:45.933Z,2.63
2023-03-21T13:38:28.388Z,2.72
2023-03-21T13:41:05.985Z,5.63
2023-03-21T13:44:02.620Z,5.28
2023-03-21T13:46:30.198Z,3.92
2023-03-21T13:49:08.666Z,8.05
2023-03-21T13:51:53.271Z,5.22
2023-03-21T13:54:29.994Z,3.92
2023-03-21T13:57:01.486Z,2.88
2023-03-21T13:59:39.840Z,3.40
2023-03-21T14:02:39.725Z,2.92
2023-03-21T14:05:21.470Z,2.55
2023-03-21T14:08:12.424Z,2.67
2023-03-21T14:10:47.390Z,2.38
2023-03-21T14:13:20.896Z,3.95
2023-03-21T14:15:56.949Z,3.47
2023-03-21T14:18:51.642Z,2.88
2023-03-21T14:21:29.501Z,4.00
2023-03-21T14:24:03.614Z,2.65
2023-03-21T14:26:36.172Z,2.58
2023-03-21T14:29:09.619Z,4.82
2023-03-21T14:31:48.218Z,4.28
2023-03-21T14:34:17.334Z,3.53
2023-03-21T14:36:56.907Z,2.80
2023-03-21T14:39:33.611Z,2.70
2023-03-21T14:42:07.755Z,3.58
2023-03-21T14:44:52.950Z,3.67
2023-03-21T14:47:28.597Z,4.75
2023-03-21T14:49:58.127Z,18.48
2023-03-21T14:52:32.576Z,5.70
2023-03-21T14:55:15.592Z,5.25
2023-03-21T14:57:43.265Z,3.65
2023-03-21T15:00:29.586Z,5.40
2023-03-21T15:03:00.724Z,3.47
2023-03-21T15:05:38.691Z,4.72
2023-03-21T15:08:16.963Z,5.05
2023-03-21T15:11:11.979Z,3.35
2023-03-21T15:13:52.503Z,2.65
2023-03-21T15:16:23.539Z,5.60
2023-03-21T15:18:52.118Z,3.22
2023-03-21T15:21:30.394Z,3.08
2023-03-21T15:24:25.764Z,4.93
2023-03-21T15:27:03.754Z,4.85
2023-03-21T15:29:34.837Z,3.90
2023-03-21T15:32:12.860Z,5.55
2023-03-21T15:34:40.379Z,6.78
2023-03-21T15:37:17.364Z,6.65
2023-03-21T15:39:45.845Z,4.05
2023-03-21T15:42:47.777Z,9.13
2023-03-21T15:45:29.261Z,7.80
2023-03-21T15:48:03.573Z,4.70
2023-03-21T15:50:38.919Z,3.20
2023-03-21T15:53:14.111Z,3.83
2023-03-21T15:55:52.730Z,9.00
2023-03-21T15:58:24.831Z,4.57
2023-03-21T16:01:01.244Z,4.05
2023-03-21T16:03:36.391Z,4.78
2023-03-21T16:06:12.734Z,4.40
2023-03-21T16:08:52.682Z,3.30
2023-03-21T16:11:22.515Z,4.15
2023-03-21T16:13:51.698Z,4.20
2023-03-21T16:16:28.885Z,3.42
2023-03-21T16:18:59.065Z,9.45
2023-03-21T16:21:31.113Z,13.25
2023-03-21T16:24:36.807Z,7.05
2023-03-21T16:27:06.219Z,7.60
2023-03-21T16:29:33.404Z,15.18
2023-03-21T16:32:06.208Z,12.38
2023-03-21T16:34:33.269Z,6.93
2023-03-21T16:37:00.421Z,4.32
2023-03-21T16:39:27.507Z,3.65
2023-03-21T16:41:54.700Z,6.68
2023-03-21T16:44:22.144Z,4.50
2023-03-21T16:46:49.757Z,6.53
2023-03-21T16:49:26.843Z,5.25
2023-03-21T16:51:57.018Z,4.20
2023-03-21T16:54:24.711Z,4.70
2023-03-21T16:56:58.824Z,3.50
2023-03-21T16:59:25.893Z,6.57
2023-03-21T17:01:53.066Z,3.90
2023-03-21T17:04:20.270Z,3.70
2023-03-21T17:06:52.153Z,4.45
2023-03-21T17:09:24.505Z,3.97
2023-03-21T17:11:52.078Z,4.32
2023-03-21T17:14:21.865Z,9.68
2023-03-21T17:16:49.514Z,3.25
2023-03-21T17:19:26.380Z,5.28
2023-03-21T17:21:55.279Z,6.78
2023-03-21T17:24:23.710Z,4.03
2023-03-21T17:26:50.999Z,7.13
2023-03-21T17:29:18.184Z,7.32
2023-03-21T17:31:47.546Z,7.75
2023-03-21T17:34:15.992Z,7.00
2023-03-21T17:36:46.432Z,3.72
2023-03-21T17:39:22.625Z,5.38
2023-03-21T17:41:54.495Z,8.43
2023-03-21T17:44:21.952Z,6.78
2023-03-21T17:46:51.954Z,4.85
2023-03-21T17:49:21.242Z,4.78
2023-03-21T17:51:49.031Z,9.43
2023-03-21T17:54:16.263Z,5.82
2023-03-21T17:56:43.737Z,8.02
2023-03-21T17:59:14.512Z,7.18
2023-03-21T18:01:42.731Z,7.93
2023-03-21T18:04:11.082Z,3.72
2023-03-21T18:06:39.785Z,6.57
2023-03-21T18:09:11.433Z,5.38
2023-03-21T18:11:40.466Z,13.90
2023-03-21T18:14:16.298Z,4.47
2023-03-21T18:16:45.464Z,6.18
2023-03-21T18:19:13.524Z,5.28
2023-03-21T18:21:44.857Z,5.45
2023-03-21T18:24:12.303Z,10.55
2023-03-21T18:26:39.630Z,5.30
2023-03-21T18:30:13.162Z,6.70
2023-03-21T18:32:05.972Z,9.70
2023-03-21T18:34:36.560Z,7.53
2023-03-21T18:37:04.500Z,8.25
2023-03-21T18:39:33.471Z,6.95
2023-03-21T18:42:04.116Z,7.15
2023-03-21T18:44:38.054Z,14.73
2023-03-21T18:47:07.498Z,14.50
2023-03-21T18:52:23.117Z,14.98
2023-03-21T18:54:50.365Z,15.93
2023-03-21T18:57:35.809Z,16.20
2023-03-21T19:00:13.432Z,9.13
2023-03-21T19:02:47.866Z,12.80
2023-03-21T19:05:22.754Z,10.82
2023-03-21T19:07:52.267Z,6.60
2023-03-21T19:10:21.995Z,10.77
2023-03-21T19:12:54.806Z,10.60
2023-03-21T19:15:24.346Z,7.03
2023-03-21T19:20:47.001Z,8.00
2023-03-21T19:23:16.282Z,12.15
2023-03-21T19:25:44.121Z,9.05
2023-03-21T19:28:11.453Z,13.05
2023-03-21T19:30:39.966Z,8.35
2023-03-21T19:33:07.577Z,7.75
2023-03-21T19:35:37.305Z,11.38
2023-03-21T19:38:04.865Z,13.65
2023-03-21T19:40:32.209Z,12.40
2023-03-21T19:43:14.276Z,10.45
2023-03-21T19:45:47.820Z,14.50
2023-03-21T19:48:15.287Z,16.48
2023-03-21T19:51:00.535Z,11.73
2023-03-21T19:53:30.340Z,13.18
2023-03-21T19:56:03.470Z,10.43
2023-03-21T19:58:32.477Z,11.30
2023-03-21T20:00:59.734Z,9.73
2023-03-21T20:03:27.785Z,11.65
2023-03-21T20:06:05.651Z,9.73
2023-03-21T20:08:51.871Z,9.73
2023-03-21T20:11:21.154Z,9.32
2023-03-21T20:13:49.872Z,11.43
2023-03-21T20:16:18.486Z,8.90
2023-03-21T20:18:47.082Z,9.63
2023-03-21T20:21:18.031Z,13.65
2023-03-21T20:23:49.412Z,17.98
2023-03-21T20:26:18.427Z,7.47
2023-03-21T20:28:56.580Z,13.50
2023-03-21T20:31:27.168Z,7.93
2023-03-21T20:33:54.479Z,10.38
2023-03-21T20:36:40.398Z,9.68
2023-03-21T20:39:08.242Z,9.82
2023-03-21T20:41:35.408Z,10.52
2023-03-21T20:46:50.172Z,9.80
2023-03-21T20:49:20.150Z,11.27
2023-03-21T20:54:36.546Z,10.88
2023-03-21T20:57:05.135Z,10.25
2023-03-21T20:59:32.764Z,11.02
2023-03-21T21:02:00.223Z,15.40
2023-03-21T21:04:49.724Z,13.00
2023-03-21T21:07:22.567Z,10.00
2023-03-21T21:09:50.376Z,13.57
2023-03-21T21:12:19.526Z,13.40
2023-03-21T21:14:47.942Z,13.13
2023-03-21T21:20:15.463Z,13.15
2023-03-21T21:22:59.111Z,9.43
2023-03-21T21:25:29.152Z,12.52
2023-03-21T21:27:56.515Z,11.77
2023-03-21T21:30:24.347Z,16.88
2023-03-21T21:32:51.337Z,12.60
2023-03-21T21:35:20.616Z,13.80
2023-03-21T21:37:48.465Z,11.98
2023-03-21T21:40:20.483Z,13.80
2023-03-21T21:42:47.780Z,12.43
2023-03-21T21:45:16.105Z,10.40
2023-03-21T21:47:46.290Z,13.45
2023-03-21T21:50:13.669Z,13.38
2023-03-21T21:52:43.712Z,12.65
2023-03-21T21:55:13.243Z,14.95
2023-03-21T21:57:41.066Z,15.63
2023-03-21T22:00:13.778Z,14.35
2023-03-21T22:02:41.753Z,13.50
2023-03-21T22:05:10.980Z,15.38
2023-03-21T22:07:39.107Z,17.85
2023-03-21T22:10:07.169Z,14.70
2023-03-21T22:12:34.268Z,12.40
2023-03-21T22:15:01.826Z,12.57
2023-03-21T22:17:28.836Z,13.10
2023-03-21T22:20:05.510Z,12.05
2023-03-21T22:22:37.515Z,9.80
2023-03-21T22:25:07.493Z,9.05
2023-03-21T22:27:34.585Z,10.55
2023-03-21T22:30:04.757Z,10.63
2023-03-21T22:32:32.914Z,12.80
2023-03-21T22:35:02.525Z,13.65
2023-03-21T22:37:35.823Z,10.68
2023-03-21T22:40:06.765Z,14.63
2023-03-21T22:42:34.915Z,11.73
2023-03-21T22:45:02.780Z,12.50
2023-03-21T22:47:29.994Z,11.75
2023-03-21T22:49:57.057Z,12.57
2023-03-21T22:52:25.310Z,17.08
2023-03-21T22:54:52.252Z,14.98
2023-03-21T22:57:22.797Z,13.07
2023-03-21T22:59:49.777Z,12.88
2023-03-21T23:02:17.162Z,12.35
2023-03-21T23:04:44.701Z,12.05
2023-03-21T23:07:12.076Z,9.13
2023-03-21T23:09:39.043Z,10.18
2023-03-21T23:12:06.413Z,9.38
2023-03-21T23:14:33.304Z,12.48
2023-03-21T23:17:02.796Z,11.98
2023-03-21T23:19:30.697Z,15.23
2023-03-21T23:21:58.637Z,11.02
2023-03-21T23:24:25.643Z,9.90
2023-03-21T23:26:53.042Z,7.55
2023-03-21T23:29:20.159Z,9.77
2023-03-21T23:31:47.655Z,9.55
2023-03-21T23:34:14.981Z,10.18
2023-03-21T23:36:42.366Z,8.90
2023-03-21T23:39:09.823Z,11.30
2023-03-21T23:41:37.096Z,10.35
2023-03-21T23:44:04.494Z,10.13
2023-03-21T23:46:31.855Z,6.60
2023-03-21T23:48:58.799Z,8.80
2023-03-21T23:51:26.186Z,8.77
2023-03-21T23:53:56.595Z,10.70
2023-03-21T23:56:27.000Z,10.35
2023-03-21T23:58:54.340Z,9.60
